sensor_id;sensor_type;location;lat;lon;timestamp;P1;durP1;ratioP1;P2;durP2;ratioP2
16967;SDS011;64862;54.398;10.126;2023-05-10T00:05:25;6.18;;;2.80;;
16967;SDS011;64862;54.398;10.126;2023-05-10T00:15:28;7.68;;;2.63;;
16967;SDS011;64862;54.398;10.126;2023-05-10T00:25:32;7.95;;;2.63;;
16967;SDS011;64862;54.398;10.126;2023-05-10T00:35:37;9.10;;;2.60;;
16967;SDS011;64862;54.398;10.126;2023-05-10T00:45:41;6.07;;;2.80;;
16967;SDS011;64862;54.398;10.126;2023-05-10T00:55:43;7.28;;;2.72;;
16967;SDS011;64862;54.398;10.126;2023-05-10T01:05:48;5.43;;;2.55;;
16967;SDS011;64862;54.398;10.126;2023-05-10T01:15:50;8.68;;;2.60;;
16967;SDS011;64862;54.398;10.126;2023-05-10T01:36:19;9.20;;;2.83;;
16967;SDS011;64862;54.398;10.126;2023-05-10T01:46:28;5.93;;;2.63;;
16967;SDS011;64862;54.398;10.126;2023-05-10T01:56:33;7.75;;;2.83;;
16967;SDS011;64862;54.398;10.126;2023-05-10T02:06:37;7.25;;;2.88;;
16967;SDS011;64862;54.398;10.126;2023-05-10T02:16:42;8.23;;;3.00;;
16967;SDS011;64862;54.398;10.126;2023-05-10T02:26:45;6.03;;;2.75;;
16967;SDS011;64862;54.398;10.126;2023-05-10T02:36:51;5.78;;;2.75;;
16967;SDS011;64862;54.398;10.126;2023-05-10T02:46:56;5.20;;;2.95;;
16967;SDS011;64862;54.398;10.126;2023-05-10T02:57:00;5.43;;;2.90;;
16967;SDS011;64862;54.398;10.126;2023-05-10T03:07:06;5.13;;;2.85;;
16967;SDS011;64862;54.398;10.126;2023-05-10T03:17:13;6.70;;;2.92;;
16967;SDS011;64862;54.398;10.126;2023-05-10T03:27:19;6.60;;;3.20;;
16967;SDS011;64862;54.398;10.126;2023-05-10T03:37:24;8.35;;;3.15;;
16967;SDS011;64862;54.398;10.126;2023-05-10T03:47:27;9.77;;;3.20;;
16967;SDS011;64862;54.398;10.126;2023-05-10T03:57:31;6.38;;;3.10;;
16967;SDS011;64862;54.398;10.126;2023-05-10T04:07:34;9.65;;;3.47;;
16967;SDS011;64862;54.398;10.126;2023-05-10T04:17:38;7.43;;;3.28;;
16967;SDS011;64862;54.398;10.126;2023-05-10T04:27:41;5.80;;;3.28;;
16967;SDS011;64862;54.398;10.126;2023-05-10T04:37:45;6.82;;;3.58;;
16967;SDS011;64862;54.398;10.126;2023-05-10T04:47:47;10.75;;;3.83;;
16967;SDS011;64862;54.398;10.126;2023-05-10T04:57:51;8.73;;;3.63;;
16967;SDS011;64862;54.398;10.126;2023-05-10T05:07:55;7.00;;;3.70;;
16967;SDS011;64862;54.398;10.126;2023-05-10T05:17:59;7.78;;;3.90;;
16967;SDS011;64862;54.398;10.126;2023-05-10T05:28:02;7.57;;;3.25;;
16967;SDS011;64862;54.398;10.126;2023-05-10T05:38:17;6.47;;;3.45;;
16967;SDS011;64862;54.398;10.126;2023-05-10T05:48:19;5.78;;;3.28;;
16967;SDS011;64862;54.398;10.126;2023-05-10T05:58:24;5.72;;;3.80;;
16967;SDS011;64862;54.398;10.126;2023-05-10T06:08:28;6.88;;;3.45;;
16967;SDS011;64862;54.398;10.126;2023-05-10T06:28:45;8.20;;;3.70;;
16967;SDS011;64862;54.398;10.126;2023-05-10T06:38:48;7.72;;;3.75;;
16967;SDS011;64862;54.398;10.126;2023-05-10T06:48:55;7.70;;;3.50;;
16967;SDS011;64862;54.398;10.126;2023-05-10T06:58:58;5.13;;;3.42;;
16967;SDS011;64862;54.398;10.126;2023-05-10T07:09:03;7.68;;;3.55;;
16967;SDS011;64862;54.398;10.126;2023-05-10T07:19:05;8.07;;;3.40;;
16967;SDS011;64862;54.398;10.126;2023-05-10T07:29:12;6.10;;;3.67;;
16967;SDS011;64862;54.398;10.126;2023-05-10T07:39:15;6.70;;;3.80;;
16967;SDS011;64862;54.398;10.126;2023-05-10T07:49:19;7.68;;;3.80;;
16967;SDS011;64862;54.398;10.126;2023-05-10T07:59:21;7.40;;;3.97;;
16967;SDS011;64862;54.398;10.126;2023-05-10T08:09:29;8.90;;;4.15;;
16967;SDS011;64862;54.398;10.126;2023-05-10T08:19:32;7.15;;;3.95;;
16967;SDS011;64862;54.398;10.126;2023-05-10T08:29:36;6.53;;;3.50;;
16967;SDS011;64862;54.398;10.126;2023-05-10T08:39:39;7.43;;;3.38;;
16967;SDS011;64862;54.398;10.126;2023-05-10T08:49:43;5.90;;;3.20;;
16967;SDS011;64862;54.398;10.126;2023-05-10T08:59:48;6.47;;;3.63;;
16967;SDS011;64862;54.398;10.126;2023-05-10T09:09:56;6.72;;;3.28;;
16967;SDS011;64862;54.398;10.126;2023-05-10T09:20:00;6.00;;;3.10;;
16967;SDS011;64862;54.398;10.126;2023-05-10T09:30:06;5.43;;;2.97;;
16967;SDS011;64862;54.398;10.126;2023-05-10T09:40:11;6.40;;;3.10;;
16967;SDS011;64862;54.398;10.126;2023-05-10T09:50:15;5.35;;;3.10;;
16967;SDS011;64862;54.398;10.126;2023-05-10T10:00:19;5.23;;;3.37;;
16967;SDS011;64862;54.398;10.126;2023-05-10T10:10:27;8.05;;;3.22;;
16967;SDS011;64862;54.398;10.126;2023-05-10T10:20:40;4.75;;;3.33;;
16967;SDS011;64862;54.398;10.126;2023-05-10T10:30:48;5.40;;;2.90;;
16967;SDS011;64862;54.398;10.126;2023-05-10T10:41:01;5.72;;;3.58;;
16967;SDS011;64862;54.398;10.126;2023-05-10T10:51:12;6.45;;;3.45;;
16967;SDS011;64862;54.398;10.126;2023-05-10T11:01:16;5.72;;;3.60;;
16967;SDS011;64862;54.398;10.126;2023-05-10T11:11:20;9.10;;;3.28;;
16967;SDS011;64862;54.398;10.126;2023-05-10T11:21:23;7.57;;;3.30;;
16967;SDS011;64862;54.398;10.126;2023-05-10T11:31:28;7.75;;;3.47;;
16967;SDS011;64862;54.398;10.126;2023-05-10T11:41:31;7.28;;;3.90;;
16967;SDS011;64862;54.398;10.126;2023-05-10T11:51:35;5.68;;;3.58;;
16967;SDS011;64862;54.398;10.126;2023-05-10T12:01:39;6.85;;;3.67;;
16967;SDS011;64862;54.398;10.126;2023-05-10T12:11:44;10.13;;;4.00;;
16967;SDS011;64862;54.398;10.126;2023-05-10T12:21:50;10.73;;;4.30;;
16967;SDS011;64862;54.398;10.126;2023-05-10T12:31:56;7.28;;;4.20;;
16967;SDS011;64862;54.398;10.126;2023-05-10T12:41:59;9.02;;;4.25;;
16967;SDS011;64862;54.398;10.126;2023-05-10T12:52:03;14.55;;;6.97;;
16967;SDS011;64862;54.398;10.126;2023-05-10T13:02:06;11.70;;;7.97;;
16967;SDS011;64862;54.398;10.126;2023-05-10T13:12:10;11.15;;;8.02;;
16967;SDS011;64862;54.398;10.126;2023-05-10T13:22:13;12.30;;;8.95;;
16967;SDS011;64862;54.398;10.126;2023-05-10T13:32:19;15.05;;;10.15;;
16967;SDS011;64862;54.398;10.126;2023-05-10T13:42:21;11.25;;;8.98;;
16967;SDS011;64862;54.398;10.126;2023-05-10T13:52:26;15.63;;;9.77;;
16967;SDS011;64862;54.398;10.126;2023-05-10T14:02:28;16.55;;;10.52;;
16967;SDS011;64862;54.398;10.126;2023-05-10T14:12:33;15.98;;;10.75;;
16967;SDS011;64862;54.398;10.126;2023-05-10T14:22:39;12.97;;;9.83;;
16967;SDS011;64862;54.398;10.126;2023-05-10T14:32:43;14.15;;;10.27;;
16967;SDS011;64862;54.398;10.126;2023-05-10T14:42:47;15.35;;;10.27;;
16967;SDS011;64862;54.398;10.126;2023-05-10T14:52:51;14.38;;;10.40;;
16967;SDS011;64862;54.398;10.126;2023-05-10T15:02:54;13.50;;;9.77;;
16967;SDS011;64862;54.398;10.126;2023-05-10T15:12:57;11.48;;;9.20;;
16967;SDS011;64862;54.398;10.126;2023-05-10T15:23:00;14.40;;;8.98;;
16967;SDS011;64862;54.398;10.126;2023-05-10T15:33:04;11.40;;;8.43;;
16967;SDS011;64862;54.398;10.126;2023-05-10T15:43:08;10.52;;;7.50;;
16967;SDS011;64862;54.398;10.126;2023-05-10T15:53:19;11.18;;;7.80;;
16967;SDS011;64862;54.398;10.126;2023-05-10T16:03:21;12.10;;;8.30;;
16967;SDS011;64862;54.398;10.126;2023-05-10T16:13:26;14.23;;;8.00;;
16967;SDS011;64862;54.398;10.126;2023-05-10T16:23:28;10.70;;;7.57;;
16967;SDS011;64862;54.398;10.126;2023-05-10T16:33:37;10.20;;;7.33;;
16967;SDS011;64862;54.398;10.126;2023-05-10T16:43:39;7.10;;;5.57;;
16967;SDS011;64862;54.398;10.126;2023-05-10T16:53:43;6.93;;;5.13;;
16967;SDS011;64862;54.398;10.126;2023-05-10T17:03:46;6.70;;;5.40;;
16967;SDS011;64862;54.398;10.126;2023-05-10T17:13:50;7.20;;;5.25;;
16967;SDS011;64862;54.398;10.126;2023-05-10T17:23:53;8.38;;;5.88;;
16967;SDS011;64862;54.398;10.126;2023-05-10T17:33:57;5.60;;;4.78;;
16967;SDS011;64862;54.398;10.126;2023-05-10T17:44:01;6.75;;;5.10;;
16967;SDS011;64862;54.398;10.126;2023-05-10T17:54:05;8.45;;;5.38;;
16967;SDS011;64862;54.398;10.126;2023-05-10T18:04:16;6.32;;;5.55;;
16967;SDS011;64862;54.398;10.126;2023-05-10T18:25:26;6.70;;;5.78;;
16967;SDS011;64862;54.398;10.126;2023-05-10T18:35:28;9.05;;;6.63;;
16967;SDS011;64862;54.398;10.126;2023-05-10T18:45:32;7.00;;;5.97;;
16967;SDS011;64862;54.398;10.126;2023-05-10T18:55:36;7.35;;;5.50;;
16967;SDS011;64862;54.398;10.126;2023-05-10T19:05:39;7.88;;;6.50;;
16967;SDS011;64862;54.398;10.126;2023-05-10T19:15:42;7.82;;;6.10;;
16967;SDS011;64862;54.398;10.126;2023-05-10T19:25:45;9.95;;;6.65;;
16967;SDS011;64862;54.398;10.126;2023-05-10T19:35:48;12.32;;;9.25;;
16967;SDS011;64862;54.398;10.126;2023-05-10T19:45:52;11.20;;;9.68;;
16967;SDS011;64862;54.398;10.126;2023-05-10T19:55:55;13.15;;;11.57;;
16967;SDS011;64862;54.398;10.126;2023-05-10T20:05:59;16.38;;;14.00;;
16967;SDS011;64862;54.398;10.126;2023-05-10T20:16:01;15.95;;;13.88;;
16967;SDS011;64862;54.398;10.126;2023-05-10T20:26:06;18.50;;;16.27;;
16967;SDS011;64862;54.398;10.126;2023-05-10T20:36:08;20.48;;;16.95;;
16967;SDS011;64862;54.398;10.126;2023-05-10T20:46:12;20.85;;;16.23;;
16967;SDS011;64862;54.398;10.126;2023-05-10T20:56:16;19.27;;;13.20;;
16967;SDS011;64862;54.398;10.126;2023-05-10T21:06:20;15.20;;;10.85;;
16967;SDS011;64862;54.398;10.126;2023-05-10T21:16:22;14.40;;;10.23;;
16967;SDS011;64862;54.398;10.126;2023-05-10T21:26:26;14.85;;;10.77;;
16967;SDS011;64862;54.398;10.126;2023-05-10T21:36:28;15.63;;;10.65;;
16967;SDS011;64862;54.398;10.126;2023-05-10T21:46:32;21.92;;;13.02;;
16967;SDS011;64862;54.398;10.126;2023-05-10T21:56:34;18.90;;;13.10;;
16967;SDS011;64862;54.398;10.126;2023-05-10T22:06:38;18.17;;;13.00;;
16967;SDS011;64862;54.398;10.126;2023-05-10T22:16:40;10.73;;;7.80;;
16967;SDS011;64862;54.398;10.126;2023-05-10T22:26:44;11.15;;;6.35;;
16967;SDS011;64862;54.398;10.126;2023-05-10T22:36:46;7.90;;;5.15;;
16967;SDS011;64862;54.398;10.126;2023-05-10T22:46:50;7.65;;;5.65;;
16967;SDS011;64862;54.398;10.126;2023-05-10T22:56:53;11.43;;;7.05;;
16967;SDS011;64862;54.398;10.126;2023-05-10T23:06:56;11.13;;;7.80;;
16967;SDS011;64862;54.398;10.126;2023-05-10T23:16:59;12.90;;;8.40;;
16967;SDS011;64862;54.398;10.126;2023-05-10T23:27:02;14.05;;;9.20;;
16967;SDS011;64862;54.398;10.126;2023-05-10T23:37:05;12.93;;;8.40;;
16967;SDS011;64862;54.398;10.126;2023-05-10T23:47:08;12.38;;;8.82;;
16967;SDS011;64862;54.398;10.126;2023-05-10T23:57:11;13.90;;;9.52;;
